createdAt,value
2018-09-29T00:01:22.376Z,6.50
2018-09-29T00:03:50.632Z,6.50
2018-09-29T00:06:18.976Z,6.40
2018-09-29T00:08:47.297Z,6.40
2018-09-29T00:11:15.579Z,6.40
2018-09-29T00:13:43.848Z,6.30
2018-09-29T00:16:13.031Z,6.30
2018-09-29T00:18:41.252Z,6.20
2018-09-29T00:21:09.528Z,6.20
2018-09-29T00:23:37.805Z,6.20
2018-09-29T00:26:06.034Z,6.20
2018-09-29T00:28:34.384Z,6.20
2018-09-29T00:31:02.577Z,6.20
2018-09-29T00:33:30.809Z,6.20
2018-09-29T00:35:59.140Z,6.20
2018-09-29T00:38:28.336Z,6.10
2018-09-29T00:40:56.618Z,6.10
2018-09-29T00:43:24.847Z,6.10
2018-09-29T00:45:53.076Z,6.10
2018-09-29T00:48:21.299Z,6.10
2018-09-29T00:50:50.300Z,6.00
2018-09-29T00:53:18.545Z,6.00
2018-09-29T00:55:46.789Z,6.00
2018-09-29T00:58:15.432Z,6.00
2018-09-29T01:00:43.701Z,5.90
2018-09-29T01:03:11.972Z,6.00
2018-09-29T01:05:40.216Z,5.90
2018-09-29T01:08:08.416Z,6.00
2018-09-29T01:10:36.668Z,5.90
2018-09-29T01:13:04.929Z,5.90
2018-09-29T01:15:33.852Z,5.90
2018-09-29T01:18:02.103Z,5.90
2018-09-29T01:20:31.217Z,5.90
2018-09-29T01:22:59.543Z,5.80
2018-09-29T01:25:27.865Z,5.90
2018-09-29T01:27:56.097Z,5.90
2018-09-29T01:30:24.313Z,5.90
2018-09-29T01:32:52.614Z,6.00
2018-09-29T01:35:20.873Z,6.00
2018-09-29T01:37:49.221Z,6.00
2018-09-29T01:40:17.488Z,6.00
2018-09-29T01:42:45.850Z,6.00
2018-09-29T01:45:14.108Z,6.10
2018-09-29T01:47:43.229Z,6.10
2018-09-29T01:50:11.454Z,6.10
2018-09-29T01:52:39.696Z,6.10
2018-09-29T01:55:07.966Z,6.20
2018-09-29T01:57:36.280Z,6.20
2018-09-29T02:00:04.479Z,6.20
2018-09-29T02:02:32.803Z,6.20
2018-09-29T02:05:01.012Z,6.20
2018-09-29T02:07:29.208Z,6.30
2018-09-29T02:09:57.464Z,6.40
2018-09-29T02:12:25.723Z,6.50
2018-09-29T02:14:53.940Z,6.60
2018-09-29T02:17:22.825Z,6.70
2018-09-29T02:19:51.064Z,6.70
2018-09-29T02:22:19.360Z,6.60
2018-09-29T02:24:47.719Z,6.60
2018-09-29T02:27:16.074Z,6.60
2018-09-29T02:29:44.295Z,6.50
2018-09-29T02:32:12.543Z,6.50
2018-09-29T02:34:40.777Z,6.60
2018-09-29T02:37:10.137Z,6.60
2018-09-29T02:39:38.336Z,6.80
2018-09-29T02:42:06.567Z,6.90
2018-09-29T02:44:34.811Z,7.10
2018-09-29T02:47:03.028Z,7.30
2018-09-29T02:49:31.268Z,7.40
2018-09-29T02:51:59.623Z,7.60
2018-09-29T02:54:27.882Z,7.70
2018-09-29T02:56:56.111Z,7.80
2018-09-29T02:59:24.438Z,7.90
2018-09-29T03:01:52.678Z,8.00
2018-09-29T03:04:21.066Z,8.00
2018-09-29T03:06:49.324Z,8.00
2018-09-29T03:09:17.742Z,7.90
2018-09-29T03:11:46.068Z,7.90
2018-09-29T03:14:14.320Z,7.90
2018-09-29T03:16:42.641Z,7.80
2018-09-29T03:19:10.912Z,7.70
2018-09-29T03:21:39.113Z,7.70
2018-09-29T03:24:07.533Z,7.60
2018-09-29T03:26:35.819Z,7.50
2018-09-29T03:29:04.016Z,7.40
2018-09-29T03:31:32.321Z,7.40
2018-09-29T03:34:00.988Z,7.40
2018-09-29T03:36:29.235Z,7.50
2018-09-29T03:38:57.504Z,7.60
2018-09-29T03:41:25.833Z,7.70
2018-09-29T03:43:54.065Z,7.70
2018-09-29T03:46:22.291Z,7.80
2018-09-29T03:48:50.981Z,8.00
2018-09-29T03:51:19.339Z,8.00
2018-09-29T03:53:47.730Z,8.10
2018-09-29T03:56:15.993Z,8.10
2018-09-29T03:58:44.538Z,8.10
2018-09-29T04:01:12.773Z,8.10
2018-09-29T04:03:41.083Z,8.10
2018-09-29T04:06:09.287Z,8.10
2018-09-29T04:08:38.076Z,8.10
2018-09-29T04:11:06.632Z,8.20
2018-09-29T04:13:34.844Z,8.20
2018-09-29T04:16:03.101Z,8.30
2018-09-29T04:18:31.324Z,8.30
2018-09-29T04:21:00.321Z,8.30
2018-09-29T04:23:28.557Z,8.40
2018-09-29T04:25:56.785Z,8.40
2018-09-29T04:28:25.062Z,8.40
2018-09-29T04:30:53.353Z,8.50
2018-09-29T04:33:21.581Z,8.60
2018-09-29T04:35:49.859Z,8.70
2018-09-29T04:38:18.292Z,8.70
2018-09-29T04:40:46.788Z,8.80
2018-09-29T04:43:15.111Z,8.90
2018-09-29T04:45:43.309Z,9.00
2018-09-29T04:48:11.569Z,9.10
2018-09-29T04:50:39.837Z,9.00
2018-09-29T04:53:08.061Z,9.00
2018-09-29T04:55:36.313Z,9.10
2018-09-29T04:58:04.560Z,9.20
2018-09-29T05:00:33.161Z,9.20
2018-09-29T05:03:01.360Z,9.20
2018-09-29T05:05:29.599Z,9.10
2018-09-29T05:07:57.917Z,9.20
2018-09-29T05:10:26.189Z,9.30
2018-09-29T05:12:54.444Z,9.40
2018-09-29T05:15:22.729Z,9.50
2018-09-29T05:17:50.965Z,9.60
2018-09-29T05:20:19.310Z,9.60
2018-09-29T05:22:47.649Z,9.70
2018-09-29T05:25:15.901Z,9.70
2018-09-29T05:27:44.131Z,9.80
2018-09-29T05:30:12.836Z,9.80
2018-09-29T05:32:41.057Z,9.80
2018-09-29T05:35:09.359Z,9.80
2018-09-29T05:37:37.635Z,9.80
2018-09-29T05:40:05.900Z,9.90
2018-09-29T05:42:34.129Z,9.90
2018-09-29T05:45:02.348Z,9.90
2018-09-29T05:47:30.588Z,9.90
2018-09-29T05:49:58.810Z,10.00
2018-09-29T05:52:27.080Z,10.00
2018-09-29T05:54:55.341Z,10.10
2018-09-29T05:57:23.581Z,10.20
2018-09-29T05:59:52.081Z,10.20
2018-09-29T06:02:20.322Z,10.30
2018-09-29T06:04:48.619Z,10.30
2018-09-29T06:07:16.933Z,10.30
2018-09-29T06:09:45.189Z,10.40
2018-09-29T06:12:13.454Z,10.40
2018-09-29T06:14:41.750Z,10.50
2018-09-29T06:17:09.979Z,10.60
2018-09-29T06:19:38.205Z,10.70
2018-09-29T06:22:06.716Z,10.80
2018-09-29T06:24:34.981Z,10.90
2018-09-29T06:27:03.244Z,11.00
2018-09-29T06:29:31.534Z,11.10
2018-09-29T06:32:00.252Z,11.30
2018-09-29T06:34:28.540Z,11.50
2018-09-29T06:36:57.626Z,11.60
2018-09-29T06:39:25.890Z,11.70
2018-09-29T06:41:54.358Z,11.70
2018-09-29T06:44:22.593Z,11.80
2018-09-29T06:46:50.912Z,11.80
2018-09-29T06:49:19.183Z,11.90
2018-09-29T06:51:47.512Z,12.00
2018-09-29T06:54:16.205Z,11.90
2018-09-29T06:56:44.546Z,11.90
2018-09-29T06:59:12.813Z,11.90
2018-09-29T07:01:41.061Z,11.90
2018-09-29T07:04:09.325Z,12.00
2018-09-29T07:06:37.575Z,12.10
2018-09-29T07:09:08.039Z,12.20
2018-09-29T07:11:36.284Z,12.20
2018-09-29T07:14:04.558Z,12.20
2018-09-29T07:16:32.836Z,12.30
2018-09-29T07:19:01.112Z,12.30
2018-09-29T07:21:29.403Z,12.40
2018-09-29T07:23:57.590Z,12.60
2018-09-29T07:26:25.881Z,12.70
2018-09-29T07:28:54.203Z,12.80
2018-09-29T07:31:22.453Z,12.90
2018-09-29T07:33:50.717Z,13.00
2018-09-29T07:36:19.047Z,13.10
2018-09-29T07:38:47.432Z,13.10
2018-09-29T07:41:15.818Z,13.20
2018-09-29T07:43:44.132Z,13.30
2018-09-29T07:46:12.604Z,13.50
2018-09-29T07:48:40.865Z,13.50
2018-09-29T07:51:09.101Z,13.50
2018-09-29T07:53:37.364Z,13.40
2018-09-29T07:56:06.005Z,13.30
2018-09-29T07:58:34.272Z,13.20
2018-09-29T08:01:02.769Z,13.00
2018-09-29T08:03:31.027Z,12.90
2018-09-29T08:05:59.250Z,12.80
2018-09-29T08:08:27.505Z,12.80
2018-09-29T08:10:55.832Z,12.70
2018-09-29T08:13:24.064Z,12.70
2018-09-29T08:15:52.348Z,12.80
2018-09-29T08:18:21.373Z,12.80
2018-09-29T08:20:49.669Z,12.90
2018-09-29T08:23:17.997Z,13.00
2018-09-29T08:25:46.327Z,13.10
2018-09-29T08:28:14.591Z,13.20
2018-09-29T08:30:42.806Z,13.20
2018-09-29T08:33:11.030Z,13.20
2018-09-29T08:35:39.495Z,13.30
2018-09-29T08:38:07.791Z,13.40
2018-09-29T08:40:36.041Z,13.50
2018-09-29T08:43:04.316Z,13.50
2018-09-29T08:45:32.545Z,13.60
2018-09-29T08:48:00.881Z,13.60
2018-09-29T08:50:29.149Z,13.70
2018-09-29T08:52:57.387Z,13.90
2018-09-29T08:55:25.655Z,14.00
2018-09-29T08:57:53.868Z,14.00
2018-09-29T09:00:22.144Z,14.10
2018-09-29T09:02:50.429Z,14.20
2018-09-29T09:05:18.673Z,14.30
2018-09-29T09:07:46.955Z,14.30
2018-09-29T09:10:15.216Z,14.40
2018-09-29T09:12:43.549Z,14.60
2018-09-29T09:15:11.809Z,14.80
2018-09-29T09:17:40.080Z,14.90
2018-09-29T09:20:08.328Z,15.10
2018-09-29T09:22:36.802Z,15.10
2018-09-29T09:25:05.054Z,15.20
2018-09-29T09:27:33.289Z,15.30
2018-09-29T09:30:01.581Z,15.40
2018-09-29T09:32:29.816Z,15.50
2018-09-29T09:34:58.067Z,15.60
2018-09-29T09:37:26.941Z,15.80
2018-09-29T09:39:55.184Z,15.80
2018-09-29T09:42:23.422Z,16.00
2018-09-29T09:44:51.645Z,16.10
2018-09-29T09:47:19.914Z,16.20
2018-09-29T09:49:48.221Z,16.30
2018-09-29T09:52:16.523Z,16.40
2018-09-29T09:54:44.854Z,16.50
2018-09-29T09:57:13.062Z,16.70
2018-09-29T09:59:42.209Z,16.80
2018-09-29T10:02:15.927Z,16.80
2018-09-29T10:04:44.160Z,16.90
2018-09-29T10:07:13.092Z,17.00
2018-09-29T10:09:41.352Z,17.10
2018-09-29T10:12:09.627Z,17.10
2018-09-29T10:14:37.908Z,17.20
2018-09-29T10:17:06.148Z,17.30
2018-09-29T10:19:34.375Z,17.30
2018-09-29T10:22:02.678Z,17.30
2018-09-29T10:24:30.932Z,17.20
2018-09-29T10:26:59.157Z,17.10
2018-09-29T10:29:28.195Z,16.90
2018-09-29T10:31:57.121Z,16.60
2018-09-29T10:34:25.346Z,16.60
2018-09-29T10:36:53.647Z,16.60
2018-09-29T10:39:21.983Z,16.50
2018-09-29T10:41:50.415Z,16.50
2018-09-29T10:44:18.733Z,16.40
2018-09-29T10:46:46.964Z,16.20
2018-09-29T10:49:15.237Z,16.20
2018-09-29T10:51:43.664Z,16.40
2018-09-29T10:54:11.947Z,16.50
2018-09-29T10:56:40.250Z,16.60
2018-09-29T10:59:08.571Z,16.80
2018-09-29T11:01:36.743Z,16.90
2018-09-29T11:04:04.998Z,17.00
2018-09-29T11:06:33.266Z,17.10
2018-09-29T11:09:01.511Z,17.10
2018-09-29T11:11:29.747Z,17.10
2018-09-29T11:13:58.064Z,16.80
2018-09-29T11:16:27.096Z,16.50
2018-09-29T11:18:55.364Z,16.60
2018-09-29T11:21:23.620Z,16.80
2018-09-29T11:23:52.604Z,17.20
2018-09-29T11:26:20.909Z,17.20
2018-09-29T11:28:49.259Z,17.50
2018-09-29T11:31:17.602Z,17.90
2018-09-29T11:33:45.989Z,18.00
2018-09-29T11:36:14.262Z,18.20
2018-09-29T11:38:42.596Z,18.00
2018-09-29T11:41:10.813Z,18.10
2018-09-29T11:43:39.083Z,18.20
2018-09-29T11:46:07.372Z,18.40
2018-09-29T11:48:35.685Z,18.50
2018-09-29T11:51:03.978Z,18.50
2018-09-29T11:53:32.248Z,18.70
2018-09-29T11:56:00.517Z,18.80
2018-09-29T11:58:28.782Z,18.90
2018-09-29T12:00:57.024Z,18.90
2018-09-29T12:03:25.256Z,18.90
2018-09-29T12:05:53.583Z,18.90
2018-09-29T12:08:21.868Z,18.80
2018-09-29T12:10:50.181Z,18.60
2018-09-29T12:13:18.447Z,18.50
2018-09-29T12:15:46.792Z,18.30
2018-09-29T12:18:15.051Z,18.10
2018-09-29T12:20:43.308Z,18.00
2018-09-29T12:23:11.554Z,17.80
2018-09-29T12:25:39.791Z,17.70
2018-09-29T12:28:08.019Z,17.50
2018-09-29T12:30:36.265Z,17.40
2018-09-29T12:33:04.564Z,17.30
2018-09-29T12:35:32.810Z,17.20
2018-09-29T12:38:01.084Z,17.00
2018-09-29T12:40:29.360Z,17.00
2018-09-29T12:42:57.587Z,16.90
2018-09-29T12:45:25.882Z,16.90
2018-09-29T12:47:54.137Z,16.90
2018-09-29T12:50:22.425Z,16.90
2018-09-29T12:52:50.677Z,17.00
2018-09-29T12:55:18.974Z,17.10
2018-09-29T12:57:47.258Z,17.20
2018-09-29T13:00:15.568Z,17.30
2018-09-29T13:02:43.857Z,17.50
2018-09-29T13:05:12.202Z,17.60
2018-09-29T13:07:40.447Z,17.70
2018-09-29T13:10:08.720Z,17.60
2018-09-29T13:12:36.966Z,17.70
2018-09-29T13:15:05.572Z,17.60
2018-09-29T13:17:33.855Z,17.70
2018-09-29T13:20:02.112Z,17.70
2018-09-29T13:22:30.388Z,17.70
2018-09-29T13:24:58.652Z,17.60
2018-09-29T13:27:26.923Z,17.70
2018-09-29T13:29:55.308Z,17.60
2018-09-29T13:32:23.544Z,17.60
2018-09-29T13:34:51.817Z,17.50
2018-09-29T13:37:20.114Z,17.70
2018-09-29T13:39:48.362Z,18.00
2018-09-29T13:42:16.705Z,18.20
2018-09-29T13:44:45.036Z,18.50
2018-09-29T13:47:13.258Z,18.70
2018-09-29T13:49:41.533Z,18.90
2018-09-29T13:52:09.833Z,18.90
2018-09-29T13:54:38.119Z,18.90
2018-09-29T13:57:06.448Z,18.90
2018-09-29T13:59:34.699Z,18.90
2018-09-29T14:02:02.981Z,18.70
2018-09-29T14:04:31.254Z,18.50
2018-09-29T14:06:59.508Z,18.50
2018-09-29T14:09:27.740Z,18.50
2018-09-29T14:11:56.020Z,18.40
2018-09-29T14:14:24.248Z,18.30
2018-09-29T14:16:52.519Z,18.20
2018-09-29T14:19:20.808Z,18.10
2018-09-29T14:21:49.184Z,17.90
2018-09-29T14:24:18.465Z,17.70
2018-09-29T14:26:46.814Z,17.70
2018-09-29T14:29:15.093Z,17.70
2018-09-29T14:31:43.376Z,17.70
2018-09-29T14:34:11.646Z,17.70
2018-09-29T14:36:39.889Z,17.60
2018-09-29T14:39:09.164Z,17.50
2018-09-29T14:41:38.668Z,17.40
2018-09-29T14:44:07.376Z,17.40
2018-09-29T14:46:35.734Z,17.30
2018-09-29T14:49:04.070Z,17.10
2018-09-29T14:51:32.404Z,17.00
2018-09-29T14:54:00.713Z,17.00
2018-09-29T14:56:28.995Z,16.90
2018-09-29T14:58:57.266Z,16.90
2018-09-29T15:01:26.136Z,16.90
2018-09-29T15:03:54.416Z,16.90
2018-09-29T15:06:22.688Z,16.90
2018-09-29T15:08:51.105Z,16.90
2018-09-29T15:11:19.501Z,16.80
2018-09-29T15:13:48.374Z,16.80
2018-09-29T15:16:16.676Z,16.70
2018-09-29T15:18:45.442Z,16.70
2018-09-29T15:21:13.711Z,16.70
2018-09-29T15:23:42.028Z,16.60
2018-09-29T15:26:10.329Z,16.50
2018-09-29T15:28:38.569Z,16.50
2018-09-29T15:31:07.217Z,16.70
2018-09-29T15:33:35.491Z,16.70
2018-09-29T15:36:03.747Z,16.70
2018-09-29T15:38:32.033Z,16.70
2018-09-29T15:41:00.295Z,16.70
2018-09-29T15:43:28.572Z,16.60
2018-09-29T15:45:56.873Z,16.40
2018-09-29T15:48:25.137Z,16.30
2018-09-29T15:50:53.426Z,16.20
2018-09-29T15:53:21.736Z,16.10
2018-09-29T15:55:50.053Z,16.20
2018-09-29T15:58:18.334Z,16.10
2018-09-29T16:00:46.712Z,16.10
2018-09-29T16:03:14.972Z,16.00
2018-09-29T16:05:43.227Z,16.00
2018-09-29T16:08:11.484Z,16.00
2018-09-29T16:10:39.765Z,16.00
2018-09-29T16:13:08.129Z,16.00
2018-09-29T16:15:36.382Z,16.00
2018-09-29T16:18:04.653Z,15.90
2018-09-29T16:20:32.913Z,15.90
2018-09-29T16:23:01.184Z,15.80
2018-09-29T16:25:29.450Z,15.80
2018-09-29T16:27:57.747Z,15.80
2018-09-29T16:30:26.013Z,15.70
2018-09-29T16:32:54.283Z,15.70
2018-09-29T16:35:22.575Z,15.60
2018-09-29T16:37:50.980Z,15.40
2018-09-29T16:40:19.324Z,15.40
2018-09-29T16:42:47.601Z,15.30
2018-09-29T16:45:15.927Z,15.30
2018-09-29T16:47:44.163Z,15.20
2018-09-29T16:50:12.444Z,15.20
2018-09-29T16:52:40.723Z,15.20
2018-09-29T16:55:08.991Z,15.10
2018-09-29T16:57:37.236Z,15.20
2018-09-29T17:00:05.485Z,15.10
2018-09-29T17:02:34.124Z,15.10
2018-09-29T17:05:02.991Z,15.10
2018-09-29T17:07:31.295Z,15.00
2018-09-29T17:09:59.857Z,15.00
2018-09-29T17:12:28.965Z,15.00
2018-09-29T17:14:57.292Z,15.00
2018-09-29T17:17:25.874Z,15.00
2018-09-29T17:19:54.145Z,15.00
2018-09-29T17:22:22.449Z,15.00
2018-09-29T17:24:50.850Z,14.90
2018-09-29T17:27:19.192Z,14.80
2018-09-29T17:29:47.513Z,14.80
2018-09-29T17:32:16.013Z,14.80
2018-09-29T17:34:44.267Z,14.80
2018-09-29T17:37:12.608Z,14.70
2018-09-29T17:39:40.880Z,14.60
2018-09-29T17:42:09.173Z,14.50
2018-09-29T17:44:37.477Z,14.50
2018-09-29T17:47:06.017Z,14.40
2018-09-29T17:49:34.369Z,14.40
2018-09-29T17:52:02.659Z,14.30
2018-09-29T17:54:30.950Z,14.20
2018-09-29T17:56:59.364Z,14.20
2018-09-29T17:59:27.637Z,14.20
2018-09-29T18:01:55.924Z,14.20
2018-09-29T18:04:24.280Z,14.10
2018-09-29T18:06:52.574Z,14.10
2018-09-29T18:09:20.893Z,14.00
2018-09-29T18:11:49.247Z,14.00
2018-09-29T18:14:17.597Z,14.00
2018-09-29T18:16:45.944Z,14.00
2018-09-29T18:19:14.685Z,14.00
2018-09-29T18:21:43.234Z,14.00
2018-09-29T18:24:11.556Z,13.90
2018-09-29T18:26:40.329Z,13.80
2018-09-29T18:29:09.051Z,13.70
2018-09-29T18:31:37.667Z,13.70
2018-09-29T18:34:05.970Z,13.60
2018-09-29T18:36:34.981Z,13.60
2018-09-29T18:39:03.627Z,13.50
2018-09-29T18:41:31.969Z,13.50
2018-09-29T18:44:00.340Z,13.50
2018-09-29T18:46:28.628Z,13.40
2018-09-29T18:48:56.978Z,13.40
2018-09-29T18:51:25.362Z,13.30
2018-09-29T18:53:53.687Z,13.20
2018-09-29T18:56:22.012Z,13.10
2018-09-29T18:58:52.572Z,13.00
2018-09-29T19:01:21.052Z,12.80
2018-09-29T19:03:50.071Z,12.70
2018-09-29T19:06:18.563Z,12.50
2018-09-29T19:08:46.922Z,12.40
2018-09-29T19:11:15.361Z,12.30
2018-09-29T19:13:43.636Z,12.20
2018-09-29T19:16:14.797Z,12.10
2018-09-29T19:18:43.396Z,11.90
2018-09-29T19:21:11.756Z,11.80
2018-09-29T19:23:40.215Z,11.70
2018-09-29T19:26:08.929Z,11.60
2018-09-29T19:28:37.527Z,11.50
2018-09-29T19:31:07.681Z,11.40
2018-09-29T19:33:36.021Z,11.40
2018-09-29T19:36:05.871Z,11.30
2018-09-29T19:38:34.170Z,11.20
2018-09-29T19:41:02.593Z,11.10
2018-09-29T19:43:30.917Z,11.10
2018-09-29T19:45:59.240Z,11.00
2018-09-29T19:48:27.553Z,11.00
2018-09-29T19:50:57.481Z,10.90
2018-09-29T19:53:26.535Z,10.80
2018-09-29T19:55:54.959Z,10.70
2018-09-29T19:58:23.308Z,10.70
2018-09-29T20:00:53.050Z,10.60
2018-09-29T20:03:21.488Z,10.50
2018-09-29T20:05:49.944Z,10.50
2018-09-29T20:08:19.957Z,10.40
2018-09-29T20:10:48.729Z,10.40
2018-09-29T20:13:17.130Z,10.30
2018-09-29T20:15:45.465Z,10.30
2018-09-29T20:18:13.778Z,10.30
2018-09-29T20:20:42.090Z,10.20
2018-09-29T20:23:10.538Z,10.20
2018-09-29T20:25:38.863Z,10.20
2018-09-29T20:28:07.686Z,10.10
2018-09-29T20:30:36.015Z,10.10
2018-09-29T20:33:04.333Z,10.00
2018-09-29T20:35:32.609Z,10.00
2018-09-29T20:38:00.905Z,10.00
2018-09-29T20:40:29.204Z,9.90
2018-09-29T20:42:57.512Z,9.80
2018-09-29T20:45:25.804Z,9.80
2018-09-29T20:47:54.108Z,9.70
2018-09-29T20:50:22.761Z,9.70
2018-09-29T20:52:52.272Z,9.70
2018-09-29T20:55:20.627Z,9.60
2018-09-29T20:57:49.025Z,9.60
2018-09-29T21:00:17.417Z,9.60
2018-09-29T21:02:45.768Z,9.60
2018-09-29T21:05:14.072Z,9.50
2018-09-29T21:07:42.397Z,9.50
2018-09-29T21:10:10.671Z,9.50
2018-09-29T21:12:38.970Z,9.40
2018-09-29T21:15:07.240Z,9.40
2018-09-29T21:17:35.537Z,9.30
2018-09-29T21:20:03.799Z,9.30
2018-09-29T21:22:32.076Z,9.30
2018-09-29T21:25:00.375Z,9.30
2018-09-29T21:27:28.809Z,9.20
2018-09-29T21:29:57.141Z,9.20
2018-09-29T21:32:25.480Z,9.20
2018-09-29T21:34:53.783Z,9.20
2018-09-29T21:37:22.191Z,9.20
2018-09-29T21:39:50.523Z,9.10
2018-09-29T21:42:18.966Z,9.10
2018-09-29T21:44:48.182Z,9.10
2018-09-29T21:47:16.532Z,9.10
2018-09-29T21:49:45.046Z,9.00
2018-09-29T21:52:13.350Z,9.00
2018-09-29T21:54:41.672Z,9.00
2018-09-29T21:57:09.996Z,9.00
2018-09-29T21:59:38.248Z,8.90
2018-09-29T22:02:06.548Z,8.90
2018-09-29T22:04:34.844Z,8.90
2018-09-29T22:07:03.157Z,8.90
2018-09-29T22:09:31.416Z,8.90
2018-09-29T22:11:59.683Z,8.90
2018-09-29T22:14:27.908Z,8.80
2018-09-29T22:16:56.160Z,8.80
2018-09-29T22:19:24.412Z,8.80
2018-09-29T22:21:52.652Z,8.80
2018-09-29T22:24:20.888Z,8.70
2018-09-29T22:26:49.334Z,8.70
2018-09-29T22:29:17.612Z,8.70
2018-09-29T22:31:46.015Z,8.70
2018-09-29T22:34:14.295Z,8.60
2018-09-29T22:36:42.532Z,8.60
2018-09-29T22:39:11.860Z,8.60
2018-09-29T22:41:40.097Z,8.60
2018-09-29T22:44:08.508Z,8.60
2018-09-29T22:46:36.800Z,8.50
2018-09-29T22:49:05.121Z,8.50
2018-09-29T22:51:33.976Z,8.50
2018-09-29T22:54:02.235Z,8.50
2018-09-29T22:56:30.548Z,8.50
2018-09-29T22:58:58.848Z,8.50
2018-09-29T23:01:27.101Z,8.40
2018-09-29T23:03:55.323Z,8.40
2018-09-29T23:06:23.601Z,8.40
2018-09-29T23:08:51.952Z,8.30
2018-09-29T23:11:20.301Z,8.30
2018-09-29T23:13:48.667Z,8.30
2018-09-29T23:16:16.953Z,8.30
2018-09-29T23:18:45.228Z,8.30
2018-09-29T23:21:13.538Z,8.20
2018-09-29T23:23:41.792Z,8.20
2018-09-29T23:26:10.060Z,8.20
2018-09-29T23:28:38.272Z,8.20
2018-09-29T23:31:06.729Z,8.10
2018-09-29T23:33:34.971Z,8.10
2018-09-29T23:36:03.236Z,8.10
2018-09-29T23:38:31.484Z,8.10
2018-09-29T23:40:59.731Z,8.10
2018-09-29T23:43:27.979Z,8.10
2018-09-29T23:45:56.212Z,8.00
2018-09-29T23:48:24.413Z,8.00
2018-09-29T23:50:52.664Z,8.00
2018-09-29T23:53:20.927Z,8.00
2018-09-29T23:55:49.276Z,8.10
2018-09-29T23:58:17.504Z,8.10
